KGSH

Goshen Municipal Airport

Goshen, Indiana, USA
METAR KGSH 230453Z AUTO 22008KT 10SM CLR 06/03 A3003 RMK AO2 SLP171 T00560028 401500011
Observed Flight Rules
Oct-23 @ 04:53 UTC (24 minutes ago) Visual Flight Rules
Wind Visibility Clouds
220° at 8 knots 10 miles
  • Clear skies
Temperatures Readings
Current 6°C / 43°F
Dewpoint 3°C / 37°F
Humidity 81%
Altimeter 30.03" Hg
Pressure 1017.1 hPa
Elevation 252
METAR KGSH 230453Z AUTO 22008KT 10SM CLR 06/03 A3003 RMK AO2 SLP171 T00560028 401500011
Observed Flight Rules
Oct-23 @ 04:53 UTC
(24 minutes ago)
VFR
Wind Visibility
220° at 8 knots 10 miles
Clouds
  • Clear skies
Temperature Dewpoint
6°C / 43°F 3°C / 37°F
Humidity Altimeter Pressure
81% 30.03" Hg 1017.1 hPa